createdAt,value
2022-10-15T00:01:27.712Z,92.20
2022-10-15T00:03:56.031Z,92.20
2022-10-15T00:06:23.669Z,92.20
2022-10-15T00:08:51.106Z,92.20
2022-10-15T00:11:24.092Z,92.20
2022-10-15T00:13:57.911Z,92.20
2022-10-15T00:16:27.933Z,92.20
2022-10-15T00:19:00.205Z,92.20
2022-10-15T00:21:28.271Z,92.20
2022-10-15T00:23:56.407Z,92.20
2022-10-15T00:26:27.209Z,92.20
2022-10-15T00:28:57.809Z,92.20
2022-10-15T00:31:28.071Z,92.20
2022-10-15T00:33:57.767Z,92.20
2022-10-15T00:36:28.602Z,92.20
2022-10-15T00:38:56.235Z,92.20
2022-10-15T00:41:29.841Z,92.20
2022-10-15T00:44:02.520Z,92.20
2022-10-15T00:46:36.570Z,92.20
2022-10-15T00:49:21.013Z,92.20
2022-10-15T00:52:07.615Z,92.20
2022-10-15T00:54:49.143Z,92.20
2022-10-15T00:57:17.421Z,92.20
2022-10-15T00:59:50.690Z,92.20
2022-10-15T01:02:20.367Z,92.20
2022-10-15T01:04:49.412Z,92.20
2022-10-15T01:09:49.458Z,92.20
2022-10-15T01:12:29.633Z,92.20
2022-10-15T01:15:20.088Z,92.20
2022-10-15T01:17:55.020Z,92.20
2022-10-15T01:20:43.652Z,92.20
2022-10-15T01:23:29.696Z,92.20
2022-10-15T01:26:12.123Z,92.20
2022-10-15T01:29:06.762Z,92.20
2022-10-15T01:31:40.367Z,92.20
2022-10-15T01:34:42.747Z,92.20
2022-10-15T01:37:36.208Z,92.20
2022-10-15T01:40:12.922Z,92.20
2022-10-15T01:42:49.123Z,92.20
2022-10-15T01:45:22.160Z,92.20
2022-10-15T01:47:59.046Z,92.20
2022-10-15T01:50:29.489Z,92.20
2022-10-15T01:52:59.014Z,92.20
2022-10-15T01:55:27.518Z,92.20
2022-10-15T01:57:57.801Z,92.20
2022-10-15T02:00:25.404Z,92.20
2022-10-15T02:02:52.746Z,92.20
2022-10-15T02:05:30.028Z,92.20
2022-10-15T02:08:15.966Z,92.20
2022-10-15T02:11:05.968Z,92.20
2022-10-15T02:13:50.772Z,92.20
2022-10-15T02:16:34.470Z,92.20
2022-10-15T02:19:22.299Z,92.20
2022-10-15T02:21:58.279Z,92.20
2022-10-15T02:24:41.806Z,92.20
2022-10-15T02:27:10.664Z,92.20
2022-10-15T02:29:39.595Z,92.20
2022-10-15T02:32:08.453Z,92.20
2022-10-15T02:34:37.579Z,92.20
2022-10-15T02:37:07.253Z,92.20
2022-10-15T02:39:35.364Z,92.20
2022-10-15T02:42:04.273Z,92.20
2022-10-15T02:44:31.616Z,92.20
2022-10-15T02:47:00.432Z,92.20
2022-10-15T02:49:27.827Z,92.20
2022-10-15T02:51:55.138Z,92.20
2022-10-15T02:54:22.532Z,92.20
2022-10-15T02:56:49.913Z,92.20
2022-10-15T02:59:19.203Z,92.20
2022-10-15T03:01:46.898Z,92.20
2022-10-15T03:04:14.550Z,92.20
2022-10-15T03:06:42.238Z,92.20
2022-10-15T03:09:09.609Z,92.20
2022-10-15T03:11:39.193Z,92.20
2022-10-15T03:14:06.639Z,92.20
2022-10-15T03:16:34.361Z,92.20
2022-10-15T03:19:02.641Z,92.20
2022-10-15T03:21:31.544Z,92.20
2022-10-15T03:23:59.715Z,92.20
2022-10-15T03:26:27.191Z,92.20
2022-10-15T03:28:54.575Z,92.20
2022-10-15T03:31:24.608Z,92.20
2022-10-15T03:33:52.440Z,92.20
2022-10-15T03:36:19.760Z,92.20
2022-10-15T03:38:47.156Z,92.20
2022-10-15T03:41:15.138Z,92.20
2022-10-15T03:43:43.057Z,92.20
2022-10-15T03:46:10.889Z,92.20
2022-10-15T03:48:38.852Z,92.20
2022-10-15T03:51:06.291Z,92.20
2022-10-15T03:53:33.804Z,92.20
2022-10-15T03:56:07.803Z,92.20
2022-10-15T03:58:35.336Z,92.20
2022-10-15T04:01:09.063Z,92.20
2022-10-15T04:03:37.303Z,92.20
2022-10-15T04:06:05.243Z,92.20
2022-10-15T04:08:32.951Z,92.20
2022-10-15T04:11:00.859Z,92.20
2022-10-15T04:13:29.373Z,92.20
2022-10-15T04:15:56.839Z,92.20
2022-10-15T04:18:24.319Z,92.20
2022-10-15T04:20:51.679Z,92.20
2022-10-15T04:23:19.424Z,92.20
2022-10-15T04:25:48.297Z,92.20
2022-10-15T04:28:15.823Z,92.20
2022-10-15T04:30:43.443Z,92.20
2022-10-15T04:33:10.910Z,92.20
2022-10-15T04:35:38.417Z,92.20
2022-10-15T04:38:05.758Z,92.20
2022-10-15T04:40:33.633Z,92.20
2022-10-15T04:43:01.204Z,92.20
2022-10-15T04:45:28.540Z,92.20
2022-10-15T04:47:57.842Z,92.20
2022-10-15T04:50:25.118Z,92.20
2022-10-15T04:52:52.837Z,92.20
2022-10-15T04:55:20.491Z,92.20
2022-10-15T04:57:47.932Z,92.20
2022-10-15T05:00:15.819Z,92.20
2022-10-15T05:02:43.993Z,92.20
2022-10-15T05:05:11.538Z,92.20
2022-10-15T05:07:39.020Z,92.20
2022-10-15T05:10:06.954Z,92.20
2022-10-15T05:12:34.573Z,92.20
2022-10-15T05:15:02.639Z,92.20
2022-10-15T05:17:31.117Z,92.20
2022-10-15T05:19:58.677Z,92.20
2022-10-15T05:22:26.363Z,92.20
2022-10-15T05:24:54.085Z,92.20
2022-10-15T05:27:21.472Z,92.20
2022-10-15T05:29:48.728Z,92.20
2022-10-15T05:32:16.121Z,92.20
2022-10-15T05:34:43.598Z,92.20
2022-10-15T05:37:11.081Z,92.20
2022-10-15T05:39:38.350Z,92.20
2022-10-15T05:42:05.701Z,92.20
2022-10-15T05:44:32.975Z,92.20
2022-10-15T05:47:00.275Z,92.20
2022-10-15T05:49:27.810Z,92.20
2022-10-15T05:54:22.375Z,92.20
2022-10-15T05:56:49.672Z,92.20
2022-10-15T05:59:17.243Z,92.20
2022-10-15T06:01:45.182Z,92.20
2022-10-15T06:04:13.181Z,92.20
2022-10-15T06:06:40.530Z,92.20
2022-10-15T06:09:08.550Z,92.20
2022-10-15T06:11:37.352Z,92.20
2022-10-15T06:14:04.823Z,92.20
2022-10-15T06:16:32.139Z,92.20
2022-10-15T06:18:59.750Z,92.20
2022-10-15T06:21:27.107Z,92.20
2022-10-15T06:23:54.545Z,92.20
2022-10-15T06:26:22.012Z,92.20
2022-10-15T06:28:50.741Z,92.20
2022-10-15T06:31:18.146Z,92.20
2022-10-15T06:33:46.498Z,92.20
2022-10-15T06:36:14.409Z,92.20
2022-10-15T06:38:44.436Z,92.20
2022-10-15T06:41:12.198Z,92.20
2022-10-15T06:43:39.791Z,92.20
2022-10-15T06:46:07.699Z,92.20
2022-10-15T06:48:35.310Z,92.20
2022-10-15T06:51:06.511Z,92.20
2022-10-15T06:53:34.296Z,92.20
2022-10-15T06:56:04.157Z,92.20
2022-10-15T06:58:31.639Z,92.20
2022-10-15T07:01:06.427Z,92.20
2022-10-15T07:03:35.251Z,92.20
2022-10-15T07:06:04.676Z,92.20
2022-10-15T07:08:32.550Z,92.20
2022-10-15T07:11:02.876Z,92.20
2022-10-15T07:13:31.047Z,92.20
2022-10-15T07:15:58.548Z,92.20
2022-10-15T07:18:25.916Z,92.20
2022-10-15T07:20:53.470Z,92.20
2022-10-15T07:23:24.097Z,92.20
2022-10-15T07:25:54.735Z,92.20
2022-10-15T07:28:22.165Z,92.20
2022-10-15T07:30:50.139Z,92.20
2022-10-15T07:33:17.931Z,92.20
2022-10-15T07:35:45.387Z,92.20
2022-10-15T07:38:13.045Z,92.20
2022-10-15T07:40:40.398Z,92.20
2022-10-15T07:43:07.629Z,92.20
2022-10-15T07:45:36.661Z,92.20
2022-10-15T07:48:04.380Z,92.20
2022-10-15T07:50:35.442Z,92.20
2022-10-15T07:53:08.673Z,92.20
2022-10-15T07:55:36.397Z,92.20
2022-10-15T07:58:06.024Z,92.20
2022-10-15T08:00:34.340Z,92.20
2022-10-15T08:03:01.859Z,92.20
2022-10-15T08:05:29.256Z,92.20
2022-10-15T08:07:56.597Z,92.20
2022-10-15T08:10:24.008Z,92.20
2022-10-15T08:12:51.613Z,92.20
2022-10-15T08:15:18.959Z,92.20
2022-10-15T08:17:46.417Z,92.20
2022-10-15T08:20:14.210Z,92.20
2022-10-15T08:22:41.585Z,92.20
2022-10-15T08:25:09.281Z,92.20
2022-10-15T08:27:36.829Z,92.20
2022-10-15T08:30:04.611Z,92.20
2022-10-15T08:32:31.802Z,92.20
2022-10-15T08:34:59.194Z,92.20
2022-10-15T08:37:26.911Z,92.20
2022-10-15T08:39:54.283Z,91.80
2022-10-15T08:42:30.166Z,91.10
2022-10-15T08:45:03.193Z,89.60
2022-10-15T08:47:37.755Z,89.60
2022-10-15T08:50:20.555Z,89.50
2022-10-15T08:52:50.015Z,90.50
2022-10-15T08:55:20.380Z,90.80
2022-10-15T08:57:52.766Z,91.70
2022-10-15T09:00:23.584Z,92.20
2022-10-15T09:03:12.614Z,92.20
2022-10-15T09:06:22.135Z,92.20
2022-10-15T09:09:04.834Z,92.20
2022-10-15T09:12:06.900Z,92.20
2022-10-15T09:14:39.483Z,92.20
2022-10-15T09:17:26.511Z,92.20
2022-10-15T09:19:57.079Z,92.20
2022-10-15T09:22:27.926Z,92.20
2022-10-15T09:24:56.292Z,92.20
2022-10-15T09:27:51.062Z,92.20
2022-10-15T09:30:40.103Z,92.20
2022-10-15T09:33:07.444Z,92.20
2022-10-15T09:35:41.855Z,92.20
2022-10-15T09:39:00.357Z,92.20
2022-10-15T09:41:33.440Z,92.20
2022-10-15T09:44:05.658Z,92.20
2022-10-15T09:46:34.562Z,92.20
2022-10-15T09:49:36.495Z,92.20
2022-10-15T09:52:14.239Z,92.20
2022-10-15T09:54:53.472Z,92.20
2022-10-15T09:57:22.987Z,92.20
2022-10-15T10:00:04.268Z,92.20
2022-10-15T10:02:31.593Z,92.20
2022-10-15T10:05:18.020Z,92.20
2022-10-15T10:07:45.712Z,92.20
2022-10-15T10:10:28.924Z,92.20
2022-10-15T10:12:57.311Z,92.20
2022-10-15T10:15:37.850Z,92.20
2022-10-15T10:18:08.283Z,92.20
2022-10-15T10:20:36.720Z,92.20
2022-10-15T10:23:25.235Z,92.20
2022-10-15T10:25:55.988Z,92.20
2022-10-15T10:28:31.286Z,92.20
2022-10-15T10:30:58.945Z,92.20
2022-10-15T10:33:32.647Z,92.20
2022-10-15T10:36:01.133Z,92.20
2022-10-15T10:38:36.672Z,92.20
2022-10-15T10:41:15.412Z,92.20
2022-10-15T10:43:55.622Z,92.20
2022-10-15T10:46:35.357Z,92.20
2022-10-15T10:49:02.662Z,92.20
2022-10-15T10:51:35.044Z,92.20
2022-10-15T10:54:12.562Z,92.20
2022-10-15T10:56:43.544Z,92.20
2022-10-15T10:59:41.491Z,92.20
2022-10-15T11:02:13.249Z,92.20
2022-10-15T11:04:41.148Z,92.20
2022-10-15T11:07:50.086Z,92.20
2022-10-15T11:10:30.602Z,92.20
2022-10-15T11:13:30.382Z,92.20
2022-10-15T11:16:10.039Z,92.20
2022-10-15T11:19:06.327Z,92.20
2022-10-15T11:21:54.896Z,92.20
2022-10-15T11:24:48.975Z,92.20
2022-10-15T11:27:37.835Z,92.20
2022-10-15T11:30:32.923Z,92.20
2022-10-15T11:33:08.870Z,92.20
2022-10-15T11:36:06.866Z,92.20
2022-10-15T11:38:47.479Z,92.20
2022-10-15T11:41:26.466Z,92.20
2022-10-15T11:44:24.926Z,92.20
2022-10-15T11:47:31.097Z,92.20
2022-10-15T11:50:20.320Z,92.20
2022-10-15T11:53:03.887Z,92.20
2022-10-15T11:55:48.131Z,92.20
2022-10-15T11:58:48.503Z,92.20
2022-10-15T12:01:30.597Z,92.20
2022-10-15T12:04:19.576Z,92.20
2022-10-15T12:06:56.954Z,92.20
2022-10-15T12:09:33.333Z,92.20
2022-10-15T12:12:11.308Z,92.20
2022-10-15T12:14:51.878Z,92.20
2022-10-15T12:17:33.357Z,92.20
2022-10-15T12:20:20.761Z,92.20
2022-10-15T12:22:50.044Z,92.20
2022-10-15T12:25:40.843Z,92.20
2022-10-15T12:28:19.797Z,92.20
2022-10-15T12:31:02.981Z,92.20
2022-10-15T12:33:58.273Z,92.20
2022-10-15T12:36:31.535Z,92.20
2022-10-15T12:39:33.548Z,92.20
2022-10-15T12:42:36.633Z,92.20
2022-10-15T12:45:09.428Z,92.20
2022-10-15T12:47:50.367Z,92.20
2022-10-15T12:50:24.781Z,92.20
2022-10-15T12:53:07.521Z,92.20
2022-10-15T12:55:42.062Z,92.20
2022-10-15T12:58:37.325Z,92.20
2022-10-15T13:01:16.861Z,92.20
2022-10-15T13:03:54.296Z,92.20
2022-10-15T13:06:38.136Z,92.20
2022-10-15T13:09:33.168Z,92.20
2022-10-15T13:12:01.958Z,92.20
2022-10-15T13:14:37.793Z,92.20
2022-10-15T13:17:15.286Z,92.20
2022-10-15T13:19:59.612Z,92.20
2022-10-15T13:22:30.701Z,92.20
2022-10-15T13:24:59.401Z,92.20
2022-10-15T13:27:32.567Z,92.20
2022-10-15T13:30:15.221Z,92.20
2022-10-15T13:32:50.858Z,92.20
2022-10-15T13:35:28.964Z,92.20
2022-10-15T13:37:59.937Z,92.20
2022-10-15T13:40:33.089Z,92.20
2022-10-15T13:43:02.097Z,92.20
2022-10-15T13:45:29.831Z,92.20
2022-10-15T13:47:58.483Z,92.20
2022-10-15T13:50:31.510Z,92.20
2022-10-15T13:53:16.779Z,92.20
2022-10-15T13:55:54.391Z,92.20
2022-10-15T13:58:38.967Z,92.20
2022-10-15T14:01:23.169Z,92.20
2022-10-15T14:04:02.358Z,92.20
2022-10-15T14:06:36.092Z,92.20
2022-10-15T14:09:28.719Z,92.20
2022-10-15T14:12:03.177Z,92.20
2022-10-15T14:14:45.102Z,92.20
2022-10-15T14:17:34.638Z,92.20
2022-10-15T14:20:27.801Z,92.20
2022-10-15T14:22:56.936Z,92.20
2022-10-15T14:25:27.569Z,92.20
2022-10-15T14:27:55.060Z,92.20
2022-10-15T14:30:36.815Z,92.20
2022-10-15T14:33:04.814Z,92.20
2022-10-15T14:35:34.287Z,92.20
2022-10-15T14:38:15.761Z,92.20
2022-10-15T14:41:06.355Z,92.20
2022-10-15T14:43:37.204Z,92.20
2022-10-15T14:46:17.498Z,92.20
2022-10-15T14:48:45.611Z,92.20
2022-10-15T14:51:23.465Z,92.20
2022-10-15T14:53:52.672Z,92.20
2022-10-15T14:56:23.240Z,92.20
2022-10-15T14:58:57.428Z,92.20
2022-10-15T15:01:27.840Z,92.20
2022-10-15T15:03:58.626Z,92.20
2022-10-15T15:06:31.212Z,92.20
2022-10-15T15:08:58.589Z,92.20
2022-10-15T15:11:27.011Z,92.20
2022-10-15T15:13:55.731Z,92.20
2022-10-15T15:16:23.705Z,92.20
2022-10-15T15:18:55.151Z,92.20
2022-10-15T15:21:24.599Z,92.20
2022-10-15T15:23:52.613Z,92.20
2022-10-15T15:26:20.354Z,92.20
2022-10-15T15:28:48.039Z,92.20
2022-10-15T15:31:18.861Z,92.20
2022-10-15T15:33:46.438Z,92.20
2022-10-15T15:36:20.646Z,92.20
2022-10-15T15:38:50.870Z,92.20
2022-10-15T15:41:22.877Z,92.20
2022-10-15T15:43:51.745Z,92.20
2022-10-15T15:46:22.214Z,92.20
2022-10-15T15:48:52.460Z,92.20
2022-10-15T15:51:23.141Z,92.20
2022-10-15T15:53:51.200Z,92.20
2022-10-15T15:56:18.569Z,92.20
2022-10-15T15:58:48.536Z,92.20
2022-10-15T16:01:17.036Z,92.20
2022-10-15T16:03:47.127Z,92.20
2022-10-15T16:06:15.400Z,92.20
2022-10-15T16:08:44.575Z,92.20
2022-10-15T16:11:12.055Z,92.20
2022-10-15T16:13:41.654Z,92.20
2022-10-15T16:16:09.917Z,92.20
2022-10-15T16:18:42.995Z,92.20
2022-10-15T16:21:10.692Z,92.20
2022-10-15T16:23:38.194Z,92.20
2022-10-15T16:26:12.644Z,92.20
2022-10-15T16:28:41.499Z,92.20
2022-10-15T16:31:27.862Z,92.20
2022-10-15T16:33:59.700Z,92.20
2022-10-15T16:36:27.117Z,92.20
2022-10-15T16:38:55.800Z,92.20
2022-10-15T16:41:26.491Z,92.20
2022-10-15T16:43:58.434Z,92.20
2022-10-15T16:46:25.782Z,92.20
2022-10-15T16:48:59.870Z,92.20
2022-10-15T16:51:28.748Z,92.20
2022-10-15T16:53:56.505Z,92.20
2022-10-15T16:56:27.592Z,92.20
2022-10-15T16:58:56.461Z,92.20
2022-10-15T17:01:28.062Z,92.20
2022-10-15T17:03:55.861Z,92.20
2022-10-15T17:06:25.760Z,92.20
2022-10-15T17:08:55.357Z,92.20
2022-10-15T17:11:26.693Z,92.20
2022-10-15T17:13:56.936Z,92.20
2022-10-15T17:16:29.024Z,92.20
2022-10-15T17:18:57.462Z,92.20
2022-10-15T17:21:27.529Z,92.20
2022-10-15T17:23:59.558Z,92.20
2022-10-15T17:26:30.096Z,92.20
2022-10-15T17:28:57.409Z,92.20
2022-10-15T17:31:26.571Z,92.20
2022-10-15T17:34:02.424Z,92.20
2022-10-15T17:36:31.962Z,92.20
2022-10-15T17:39:00.514Z,92.20
2022-10-15T17:41:29.908Z,92.20
2022-10-15T17:43:57.901Z,92.20
2022-10-15T17:46:27.344Z,92.20
2022-10-15T17:48:55.969Z,92.20
2022-10-15T17:51:29.687Z,92.20
2022-10-15T17:53:57.780Z,92.20
2022-10-15T17:56:33.380Z,92.20
2022-10-15T17:59:02.487Z,92.20
2022-10-15T18:01:56.339Z,92.20
2022-10-15T18:04:20.061Z,92.20
2022-10-15T18:06:47.834Z,92.20
2022-10-15T18:09:15.463Z,92.20
2022-10-15T18:11:42.841Z,92.20
2022-10-15T18:14:10.130Z,92.20
2022-10-15T18:16:37.414Z,92.20
2022-10-15T18:19:05.009Z,92.20
2022-10-15T18:21:32.540Z,92.20
2022-10-15T18:24:00.575Z,92.20
2022-10-15T18:26:28.147Z,92.20
2022-10-15T18:28:58.630Z,92.20
2022-10-15T18:31:29.645Z,92.20
2022-10-15T18:33:57.090Z,92.20
2022-10-15T18:36:31.652Z,92.20
2022-10-15T18:38:59.605Z,92.20
2022-10-15T18:41:30.368Z,92.20
2022-10-15T18:44:00.623Z,92.20
2022-10-15T18:46:29.826Z,92.20
2022-10-15T18:48:57.752Z,92.20
2022-10-15T18:51:26.167Z,92.20
2022-10-15T18:53:54.488Z,92.20
2022-10-15T18:56:22.781Z,92.20
2022-10-15T18:58:53.135Z,92.20
2022-10-15T19:01:26.432Z,92.20
2022-10-15T19:04:06.890Z,92.20
2022-10-15T19:06:38.380Z,92.20
2022-10-15T19:09:08.366Z,92.20
2022-10-15T19:11:36.827Z,92.20
2022-10-15T19:14:04.848Z,92.20
2022-10-15T19:16:32.746Z,92.20
2022-10-15T19:19:00.978Z,92.20
2022-10-15T19:21:29.264Z,92.20
2022-10-15T19:23:56.867Z,92.20
2022-10-15T19:26:24.754Z,92.20
2022-10-15T19:28:53.208Z,92.20
2022-10-15T19:31:27.590Z,92.20
2022-10-15T19:33:58.311Z,92.20
2022-10-15T19:36:29.333Z,92.20
2022-10-15T19:38:57.096Z,92.20
2022-10-15T19:41:26.403Z,92.20
2022-10-15T19:43:54.773Z,92.20
2022-10-15T19:46:22.448Z,92.20
2022-10-15T19:48:50.076Z,92.20
2022-10-15T19:51:20.629Z,92.20
2022-10-15T19:53:52.369Z,92.20
2022-10-15T19:56:19.674Z,92.20
2022-10-15T19:58:47.180Z,92.20
2022-10-15T20:01:15.479Z,92.20
2022-10-15T20:03:42.939Z,92.20
2022-10-15T20:06:10.709Z,92.20
2022-10-15T20:08:37.983Z,92.20
2022-10-15T20:11:09.418Z,92.20
2022-10-15T20:13:37.403Z,92.20
2022-10-15T20:16:09.966Z,92.20
2022-10-15T20:18:37.992Z,92.20
2022-10-15T20:21:10.485Z,92.20
2022-10-15T20:23:39.582Z,92.20
2022-10-15T20:26:08.879Z,92.20
2022-10-15T20:28:38.145Z,92.20
2022-10-15T20:31:17.039Z,92.20
2022-10-15T20:33:45.370Z,92.20
2022-10-15T20:36:19.886Z,92.20
2022-10-15T20:38:50.408Z,92.20
2022-10-15T20:41:18.542Z,92.20
2022-10-15T20:43:53.912Z,92.20
2022-10-15T20:46:43.946Z,92.20
2022-10-15T20:49:15.826Z,92.20
2022-10-15T20:51:44.705Z,92.20
2022-10-15T20:54:15.942Z,92.20
2022-10-15T20:56:43.311Z,92.20
2022-10-15T20:59:10.952Z,92.20
2022-10-15T21:01:38.762Z,92.20
2022-10-15T21:04:07.120Z,92.20
2022-10-15T21:06:34.570Z,92.20
2022-10-15T21:09:02.128Z,92.20
2022-10-15T21:11:29.834Z,92.20
2022-10-15T21:13:57.224Z,92.20
2022-10-15T21:16:28.187Z,92.20
2022-10-15T21:18:56.517Z,92.20
2022-10-15T21:21:24.618Z,92.20
2022-10-15T21:23:52.045Z,92.20
2022-10-15T21:26:19.915Z,92.20
2022-10-15T21:28:47.730Z,92.20
2022-10-15T21:31:17.214Z,92.20
2022-10-15T21:33:45.536Z,92.20
2022-10-15T21:36:22.414Z,92.20
2022-10-15T21:38:57.330Z,92.20
2022-10-15T21:41:25.830Z,92.20
2022-10-15T21:43:53.383Z,92.20
2022-10-15T21:46:20.975Z,92.20
2022-10-15T21:48:48.450Z,92.20
2022-10-15T21:51:27.116Z,92.20
2022-10-15T21:53:55.507Z,92.20
2022-10-15T21:56:23.715Z,92.20
2022-10-15T21:58:52.331Z,92.20
2022-10-15T22:01:25.065Z,92.20
2022-10-15T22:03:54.215Z,92.20
2022-10-15T22:06:22.879Z,92.20
2022-10-15T22:08:50.386Z,92.20
2022-10-15T22:11:21.662Z,92.20
2022-10-15T22:13:52.225Z,92.20
2022-10-15T22:16:20.781Z,92.20
2022-10-15T22:18:48.722Z,92.20
2022-10-15T22:21:19.158Z,92.20
2022-10-15T22:23:49.340Z,92.20
2022-10-15T22:26:18.320Z,92.20
2022-10-15T22:28:46.952Z,92.20
2022-10-15T22:31:17.037Z,92.20
2022-10-15T22:33:45.707Z,92.20
2022-10-15T22:36:26.448Z,92.20
2022-10-15T22:38:57.361Z,92.20
2022-10-15T22:41:24.967Z,92.20
2022-10-15T22:43:52.539Z,92.20
2022-10-15T22:46:20.063Z,92.20
2022-10-15T22:48:49.607Z,92.20
2022-10-15T22:51:17.300Z,92.20
2022-10-15T22:53:44.709Z,92.20
2022-10-15T22:56:19.249Z,92.20
2022-10-15T22:58:47.257Z,92.20
2022-10-15T23:01:22.302Z,92.20
2022-10-15T23:03:56.278Z,92.20
2022-10-15T23:06:25.343Z,92.20
2022-10-15T23:08:53.198Z,92.20
2022-10-15T23:11:23.783Z,92.20
2022-10-15T23:14:05.830Z,92.20
2022-10-15T23:16:39.764Z,92.20
2022-10-15T23:19:19.903Z,92.20
2022-10-15T23:21:57.106Z,92.20
2022-10-15T23:24:27.504Z,92.20
2022-10-15T23:26:54.927Z,92.20
2022-10-15T23:29:26.047Z,92.20
2022-10-15T23:31:54.658Z,92.20
2022-10-15T23:34:26.572Z,92.20
2022-10-15T23:36:54.246Z,92.20
2022-10-15T23:39:24.336Z,92.20
2022-10-15T23:41:52.493Z,92.20
2022-10-15T23:44:20.146Z,92.20
2022-10-15T23:46:47.704Z,92.20
2022-10-15T23:49:15.031Z,92.20
2022-10-15T23:51:45.256Z,92.20
2022-10-15T23:54:16.440Z,92.20
2022-10-15T23:56:44.794Z,92.20
2022-10-15T23:59:12.948Z,92.20
